Time;durP1;ratioP1;P1;durP2;ratioP2;P2;SDS_P1;SDS_P2;PMS_P1;PMS_P2;Temp;Humidity;BMP_temperature;BMP_pressure;BME280_temperature;BME280_humidity;BME280_pressure;Samples;Min_cycle;Max_cycle;Signal;HPM_P1;HPM_P2
2022/05/26 00:02:47;;;;;;;48.83;18.07;;;;;;;;;;6272140;28;20013;-82
2022/05/26 00:05:47;;;;;;;;;;;;;;;;;;6272792;28;20542;-82
2022/05/26 00:08:47;;;;;;;43.75;16.80;;;;;;;;;;6273247;28;20348;-82
2022/05/26 00:11:48;;;;;;;41.22;17.95;;;;;;;;;;6272093;28;20033;-82
2022/05/26 00:14:48;;;;;;;43.45;16.92;;;;;;;;;;6272146;28;20009;-82
2022/05/26 00:17:48;;;;;;;34.20;14.35;;;;;;;;;;6272123;28;20021;-82
2022/05/26 00:20:48;;;;;;;34.63;13.43;;;;;;;;;;6270995;28;20551;-83
2022/05/26 00:23:49;;;;;;;31.00;13.43;;;;;;;;;;6271578;28;20639;-83
2022/05/26 00:26:49;;;;;;;29.43;12.13;;;;;;;;;;6266469;28;20021;-82
2022/05/26 00:29:49;;;;;;;31.58;12.93;;;;;;;;;;6272046;28;20275;-82
2022/05/26 00:32:50;;;;;;;36.10;13.45;;;;;;;;;;6272117;28;20369;-83
2022/05/26 00:35:50;;;;;;;38.07;15.10;;;;;;;;;;6272265;28;20028;-82
2022/05/26 00:38:50;;;;;;;36.40;13.15;;;;;;;;;;6273395;28;20255;-82
2022/05/26 00:41:53;;;;;;;30.73;13.33;;;;;;;;;;6270944;28;20033;-82
2022/05/26 00:44:54;;;;;;;31.15;13.23;;;;;;;;;;6271696;28;20290;-82
2022/05/26 00:47:54;;;;;;;35.43;14.13;;;;;;;;;;6272207;28;20755;-82
2022/05/26 00:50:56;;;;;;;57.15;17.50;;;;;;;;;;6271782;28;20970;-82
2022/05/26 00:53:59;;;;;;;35.40;12.65;;;;;;;;;;6269743;28;20040;-82
2022/05/26 00:57:03;;;;;;;44.78;17.50;;;;;;;;;;6270364;28;20025;-82
2022/05/26 01:00:05;;;;;;;35.92;15.10;;;;;;;;;;6272525;28;20036;-82
2022/05/26 01:03:05;;;;;;;48.38;17.02;;;;;;;;;;6272585;28;20025;-83
2022/05/26 01:06:08;;;;;;;43.77;18.70;;;;;;;;;;6272111;28;20025;-82
2022/05/26 01:09:08;;;;;;;48.85;14.57;;;;;;;;;;6270722;28;20282;-82
2022/05/26 01:12:09;;;;;;;41.00;15.88;;;;;;;;;;6270237;28;20013;-82
2022/05/26 01:15:17;;;;;;;47.95;18.10;;;;;;;;;;6272234;28;20020;-83
2022/05/26 01:18:36;;;;;;;38.95;13.88;;;;;;;;;;6271854;28;20041;-82
2022/05/26 01:21:40;;;;;;;36.25;14.93;;;;;;;;;;6269698;28;20116;-82
2022/05/26 01:24:54;;;;;;;32.67;13.20;;;;;;;;;;6271323;28;20035;-82
2022/05/26 01:28:18;;;;;;;37.75;12.85;;;;;;;;;;6270780;28;20495;-82
2022/05/26 01:31:22;;;;;;;36.05;13.85;;;;;;;;;;6274789;28;20435;-82
2022/05/26 01:34:40;;;;;;;41.78;16.10;;;;;;;;;;6274824;28;20373;-82
2022/05/26 01:37:59;;;;;;;36.58;15.05;;;;;;;;;;6291765;28;20017;-82
2022/05/26 01:41:16;;;;;;;47.30;16.00;;;;;;;;;;6275068;28;20303;-82
2022/05/26 01:44:33;;;;;;;41.17;14.00;;;;;;;;;;6272451;28;20052;-82
2022/05/26 01:47:45;;;;;;;44.58;16.65;;;;;;;;;;6276362;28;20116;-82
2022/05/26 01:51:03;;;;;;;48.60;17.60;;;;;;;;;;6274492;28;20546;-82
2022/05/26 01:54:42;;;;;;;55.58;19.33;;;;;;;;;;6274236;28;20021;-81
2022/05/26 01:57:50;;;;;;;45.05;13.45;;;;;;;;;;6198983;28;20536;-82
2022/05/26 02:00:52;;;;;;;37.95;13.50;;;;;;;;;;6182621;28;20014;-82
2022/05/26 02:03:52;;;;;;;;;;;;;;;;;;6275820;28;20024;-81
2022/05/26 02:07:01;;;;;;;32.72;12.32;;;;;;;;;;6274943;28;19893;-82
2022/05/26 02:10:04;;;;;;;27.58;11.32;;;;;;;;;;6275864;28;20460;-82
2022/05/26 02:13:10;;;;;;;24.05;11.18;;;;;;;;;;6275520;28;20021;-80
2022/05/26 02:16:16;;;;;;;30.08;11.32;;;;;;;;;;6273725;28;20025;-83
2022/05/26 02:19:34;;;;;;;42.28;16.33;;;;;;;;;;6273638;28;20048;-81
2022/05/26 02:22:37;;;;;;;26.60;9.40;;;;;;;;;;6274587;28;20071;-81
2022/05/26 02:25:38;;;;;;;56.10;15.20;;;;;;;;;;6267512;28;20022;-81
2022/05/26 02:31:57;;;;;;;30.10;12.43;;;;;;;;;;6267231;28;20029;-80
2022/05/26 02:34:59;;;;;;;43.83;13.48;;;;;;;;;;6273532;28;20526;-80
2022/05/26 02:38:01;;;;;;;24.35;9.73;;;;;;;;;;6273376;28;20795;-80
2022/05/26 02:41:01;;;;;;;29.90;12.15;;;;;;;;;;6259223;28;20028;-81
2022/05/26 02:44:03;;;;;;;27.70;10.38;;;;;;;;;;6261251;28;20025;-80
2022/05/26 02:47:03;;;;;;;27.25;10.40;;;;;;;;;;6257581;28;20175;-81
2022/05/26 02:50:18;;;;;;;40.07;11.50;;;;;;;;;;6271771;28;20805;-81
2022/05/26 02:53:23;;;;;;;19.73;9.68;;;;;;;;;;6270913;28;20036;-80
2022/05/26 02:56:23;;;;;;;19.27;9.40;;;;;;;;;;6273421;28;20017;-81
2022/05/26 02:59:30;;;;;;;26.70;10.53;;;;;;;;;;6267544;28;20037;-80
2022/05/26 03:02:30;;;;;;;39.17;13.52;;;;;;;;;;6266095;28;20268;-80
2022/05/26 03:05:36;;;;;;;38.70;12.23;;;;;;;;;;6258959;28;20052;-80
2022/05/26 03:08:39;;;;;;;25.27;9.63;;;;;;;;;;6266291;28;20310;-80
2022/05/26 03:11:47;;;;;;;29.15;11.30;;;;;;;;;;6264281;28;20017;-80
2022/05/26 03:14:48;;;;;;;27.83;12.25;;;;;;;;;;6269908;28;20014;-78
2022/05/26 03:17:48;;;;;;;32.88;13.55;;;;;;;;;;6258455;28;20111;-78
2022/05/26 03:20:48;;;;;;;31.55;13.10;;;;;;;;;;6271738;28;20044;-79
2022/05/26 03:23:49;;;;;;;35.47;12.50;;;;;;;;;;6272670;28;20024;-79
2022/05/26 03:26:49;;;;;;;29.80;12.57;;;;;;;;;;6265614;28;20028;-79
2022/05/26 03:29:49;;;;;;;36.80;10.93;;;;;;;;;;6273451;28;20491;-80
2022/05/26 03:32:49;;;;;;;41.87;10.70;;;;;;;;;;6272220;28;20743;-79
2022/05/26 03:42:31;;;;;;;36.25;13.07;;;;;;;;;;6273048;28;20017;-80
2022/05/26 03:45:33;;;;;;;34.47;12.48;;;;;;;;;;6271837;28;20039;-80
2022/05/26 03:48:34;;;;;;;27.75;10.73;;;;;;;;;;6272588;28;20025;-80
2022/05/26 03:51:34;;;;;;;29.17;12.60;;;;;;;;;;6272766;28;20048;-80
2022/05/26 03:54:35;;;;;;;35.92;12.25;;;;;;;;;;6269532;28;20033;-80
2022/05/26 03:57:35;;;;;;;42.17;14.27;;;;;;;;;;6272574;28;20009;-80
2022/05/26 04:00:36;;;;;;;38.13;14.30;;;;;;;;;;6271386;28;20021;-80
2022/05/26 04:03:36;;;;;;;31.67;11.05;;;;;;;;;;6272415;28;20771;-80
2022/05/26 04:06:37;;;;;;;29.75;13.10;;;;;;;;;;6270475;28;20027;-80
2022/05/26 04:09:37;;;;;;;30.35;11.93;;;;;;;;;;6265905;28;20052;-80
2022/05/26 04:12:38;;;;;;;40.85;14.50;;;;;;;;;;6266840;28;20025;-79
2022/05/26 04:15:38;;;;;;;39.47;13.68;;;;;;;;;;6272648;28;20029;-79
2022/05/26 04:18:39;;;;;;;35.70;13.73;;;;;;;;;;6272249;28;20049;-79
2022/05/26 04:22:14;;;;;;;40.57;13.37;;;;;;;;;;6272050;28;20274;-79
2022/05/26 04:24:59;;;;;;;37.33;14.70;;;;;;;;;;6267336;28;20929;-79
2022/05/26 04:27:59;;;;;;;29.80;12.40;;;;;;;;;;6272086;28;20029;-80
2022/05/26 04:31:00;;;;;;;31.17;11.87;;;;;;;;;;6270733;28;20048;-79
2022/05/26 04:34:00;;;;;;;43.28;11.15;;;;;;;;;;6272355;28;20287;-79
2022/05/26 04:37:00;;;;;;;33.93;11.80;;;;;;;;;;6271001;28;20662;-79
2022/05/26 04:40:01;;;;;;;51.90;18.70;;;;;;;;;;6271031;28;21104;-77
2022/05/26 04:43:01;;;;;;;42.15;14.52;;;;;;;;;;6271054;28;20033;-77
2022/05/26 04:46:04;;;;;;;44.15;14.57;;;;;;;;;;6266148;28;20032;-79
2022/05/26 04:49:05;;;;;;;45.42;15.45;;;;;;;;;;6267210;28;20488;-80
2022/05/26 04:52:09;;;;;;;34.30;14.68;;;;;;;;;;6273581;28;20105;-78
2022/05/26 04:55:09;;;;;;;33.67;14.80;;;;;;;;;;6263706;28;20024;-77
2022/05/26 04:58:10;;;;;;;32.97;13.43;;;;;;;;;;6269563;28;20749;-77
2022/05/26 05:01:14;;;;;;;32.10;13.50;;;;;;;;;;6266158;28;20447;-78
2022/05/26 05:04:14;;;;;;;56.80;18.10;;;;;;;;;;6271929;28;20765;-77
2022/05/26 05:07:15;;;;;;;37.50;15.18;;;;;;;;;;6275941;28;20029;-77
2022/05/26 05:10:15;;;;;;;40.55;16.67;;;;;;;;;;6274873;28;20032;-78
2022/05/26 05:13:16;;;;;;;42.00;16.75;;;;;;;;;;6275737;28;20013;-79
2022/05/26 05:16:22;;;;;;;45.53;17.37;;;;;;;;;;6275563;28;20067;-78
2022/05/26 05:19:22;;;;;;;48.13;19.33;;;;;;;;;;6275101;28;20691;-78
2022/05/26 05:22:29;;;;;;;55.30;19.00;;;;;;;;;;6277338;28;20031;-78
2022/05/26 05:25:36;;;;;;;38.00;18.30;;;;;;;;;;6278384;28;20064;-81
2022/05/26 05:28:39;;;;;;;43.05;18.08;;;;;;;;;;6277200;28;20466;-81
2022/05/26 05:31:59;;;;;;;29.90;15.25;;;;;;;;;;6273620;28;20037;-81
2022/05/26 05:35:12;;;;;;;25.58;12.85;;;;;;;;;;6269996;28;20057;-81
2022/05/26 05:38:13;;;;;;;26.02;13.00;;;;;;;;;;6270257;28;20021;-82
2022/05/26 05:41:13;;;;;;;24.87;10.77;;;;;;;;;;6275327;28;20035;-82
2022/05/26 05:44:13;;;;;;;17.33;9.17;;;;;;;;;;6265231;28;20038;-82
2022/05/26 05:47:14;;;;;;;16.77;9.27;;;;;;;;;;6272852;28;20052;-82
2022/05/26 05:50:14;;;;;;;26.20;11.57;;;;;;;;;;6275643;28;20048;-83
2022/05/26 05:53:15;;;;;;;22.10;11.53;;;;;;;;;;6270424;28;20044;-83
2022/05/26 05:56:15;;;;;;;14.73;8.82;;;;;;;;;;6273355;28;20079;-83
2022/05/26 05:59:15;;;;;;;21.80;9.57;;;;;;;;;;6271426;28;20020;-84
2022/05/26 06:02:16;;;;;;;15.77;8.53;;;;;;;;;;6261690;28;20024;-84
2022/05/26 06:05:16;;;;;;;18.43;10.23;;;;;;;;;;6267173;28;20013;-84
2022/05/26 06:08:16;;;;;;;13.63;8.07;;;;;;;;;;6261289;28;20022;-84
2022/05/26 06:11:16;;;;;;;12.87;7.10;;;;;;;;;;6254268;28;20457;-83
2022/05/26 06:14:17;;;;;;;19.03;8.00;;;;;;;;;;6263796;28;20540;-84
2022/05/26 06:17:17;;;;;;;20.30;9.10;;;;;;;;;;6267870;28;20016;-84
2022/05/26 06:20:17;;;;;;;15.00;7.67;;;;;;;;;;6266419;28;20045;-83
2022/05/26 06:23:18;;;;;;;19.67;7.60;;;;;;;;;;6264318;28;20482;-84
2022/05/26 06:26:18;;;;;;;12.10;6.72;;;;;;;;;;6267157;28;20450;-82
2022/05/26 06:39:33;;;;;;;15.27;7.75;;;;;;;;;;6276902;28;20037;-82
2022/05/26 06:42:34;;;;;;;16.67;6.07;;;;;;;;;;6276185;28;20028;-82
2022/05/26 06:45:35;;;;;;;10.97;6.27;;;;;;;;;;6273095;28;20021;-82
2022/05/26 06:48:35;;;;;;;9.82;5.78;;;;;;;;;;6268305;28;20544;-83
2022/05/26 06:51:39;;;;;;;11.87;5.77;;;;;;;;;;6275367;28;20043;-84
2022/05/26 06:54:41;;;;;;;8.40;5.20;;;;;;;;;;6267555;28;20021;-82
2022/05/26 06:57:41;;;;;;;8.57;5.30;;;;;;;;;;6274848;28;20590;-83
2022/05/26 07:00:43;;;;;;;;;;;;;;;;;;6275018;28;20121;-82
2022/05/26 07:03:43;;;;;;;7.55;4.90;;;;;;;;;;6275706;28;19905;-84
2022/05/26 07:06:43;;;;;;;;;;;;;;;;;;6278721;28;20373;-82
2022/05/26 07:09:44;;;;;;;9.10;5.10;;;;;;;;;;6274831;28;20400;-82
2022/05/26 07:12:46;;;;;;;6.53;4.28;;;;;;;;;;6270863;28;20103;-83
2022/05/26 07:15:46;;;;;;;5.45;3.80;;;;;;;;;;6276743;28;20028;-83
2022/05/26 07:18:47;;;;;;;10.93;4.90;;;;;;;;;;6275763;28;20041;-83
2022/05/26 07:21:48;;;;;;;9.63;5.40;;;;;;;;;;6270376;28;20021;-83
2022/05/26 07:24:49;;;;;;;7.32;4.22;;;;;;;;;;6275617;28;20035;-83
2022/05/26 07:27:49;;;;;;;10.52;5.25;;;;;;;;;;6277073;28;20021;-83
2022/05/26 07:30:52;;;;;;;8.77;4.80;;;;;;;;;;6277243;28;20381;-83
2022/05/26 07:33:52;;;;;;;12.85;4.50;;;;;;;;;;6278117;28;20017;-82
2022/05/26 07:43:31;;;;;;;8.02;4.28;;;;;;;;;;6278109;28;20396;-83
2022/05/26 07:46:37;;;;;;;12.00;4.83;;;;;;;;;;6268522;28;20036;-83
2022/05/26 07:49:39;;;;;;;8.13;4.88;;;;;;;;;;6272166;28;20021;-83
2022/05/26 07:52:39;;;;;;;9.07;3.97;;;;;;;;;;6273677;28;20085;-83
2022/05/26 07:55:42;;;;;;;7.20;4.30;;;;;;;;;;6273275;28;20021;-83
2022/05/26 07:58:43;;;;;;;7.13;4.43;;;;;;;;;;6270912;28;20071;-83
2022/05/26 08:01:44;;;;;;;6.90;3.30;;;;;;;;;;6276550;28;20400;-83
2022/05/26 08:04:44;;;;;;;7.60;3.20;;;;;;;;;;6278992;28;20055;-84
2022/05/26 08:07:44;;;;;;;6.00;3.43;;;;;;;;;;6272199;28;20040;-83
2022/05/26 08:10:45;;;;;;;6.40;2.93;;;;;;;;;;6266480;28;20048;-84
2022/05/26 08:13:45;;;;;;;4.77;2.87;;;;;;;;;;6260150;28;20017;-84
2022/05/26 08:16:45;;;;;;;4.50;2.67;;;;;;;;;;6272439;28;20016;-84
2022/05/26 08:19:45;;;;;;;5.23;3.10;;;;;;;;;;6268875;28;20041;-83
2022/05/26 08:22:46;;;;;;;11.23;2.80;;;;;;;;;;6259222;28;20033;-84
2022/05/26 08:25:46;;;;;;;5.97;3.00;;;;;;;;;;6268911;28;20029;-84
2022/05/26 08:28:46;;;;;;;4.33;2.40;;;;;;;;;;6275265;28;20025;-84
2022/05/26 08:31:47;;;;;;;4.43;2.33;;;;;;;;;;6274124;28;20092;-84
2022/05/26 08:34:47;;;;;;;8.43;2.60;;;;;;;;;;6270766;28;20116;-84
2022/05/26 08:37:47;;;;;;;6.13;1.77;;;;;;;;;;6273889;28;20028;-84
2022/05/26 08:40:50;;;;;;;2.83;1.80;;;;;;;;;;6270905;28;20105;-83
2022/05/26 08:43:53;;;;;;;6.82;2.10;;;;;;;;;;6271281;28;20021;-83
2022/05/26 08:47:08;;;;;;;3.67;2.40;;;;;;;;;;6294515;28;20028;-84
2022/05/26 08:50:14;;;;;;;4.72;2.22;;;;;;;;;;6275438;28;20025;-83
2022/05/26 08:53:21;;;;;;;3.22;1.40;;;;;;;;;;6272247;28;20053;-83
2022/05/26 08:56:25;;;;;;;1.90;1.40;;;;;;;;;;6276136;28;20563;-83
2022/05/26 08:59:30;;;;;;;2.25;1.30;;;;;;;;;;6264177;28;20436;-84
2022/05/26 09:02:35;;;;;;;1.55;0.90;;;;;;;;;;6270950;28;20075;-83
2022/05/26 09:05:38;;;;;;;3.92;2.05;;;;;;;;;;6277932;28;20506;-83
2022/05/26 09:15:25;;;;;;;1.23;0.80;;;;;;;;;;6272940;28;20101;-83
2022/05/26 09:18:25;;;;;;;1.27;1.17;;;;;;;;;;6279223;28;20080;-83
2022/05/26 09:21:31;;;;;;;1.47;1.00;;;;;;;;;;6282913;28;20021;-83
2022/05/26 09:24:31;;;;;;;2.22;1.02;;;;;;;;;;6282758;28;20036;-83
2022/05/26 09:27:38;;;;;;;4.07;1.43;;;;;;;;;;6283361;28;20029;-83
2022/05/26 09:30:39;;;;;;;3.60;0.82;;;;;;;;;;6283280;28;20035;-83
2022/05/26 09:33:39;;;;;;;2.78;1.40;;;;;;;;;;6283359;28;20025;-83
2022/05/26 09:36:40;;;;;;;1.00;0.83;;;;;;;;;;6285258;28;20092;-83
2022/05/26 09:39:42;;;;;;;0.40;0.40;;;;;;;;;;6285517;28;20055;-84
2022/05/26 09:42:43;;;;;;;2.92;1.27;;;;;;;;;;6282977;28;20032;-83
2022/05/26 09:45:46;;;;;;;1.15;0.95;;;;;;;;;;6286462;28;20025;-83
2022/05/26 09:48:50;;;;;;;1.65;1.13;;;;;;;;;;6287731;28;20056;-83
2022/05/26 09:52:02;;;;;;;1.65;0.90;;;;;;;;;;6284281;28;20035;-83
2022/05/26 09:55:08;;;;;;;11.40;1.98;;;;;;;;;;6269499;28;20028;-83
2022/05/26 09:58:14;;;;;;;0.90;0.90;;;;;;;;;;6275283;28;20392;-83
2022/05/26 10:01:20;;;;;;;6.93;2.10;;;;;;;;;;6280996;28;20128;-84
2022/05/26 10:04:21;;;;;;;5.57;1.98;;;;;;;;;;6281216;28;20392;-83
2022/05/26 10:07:39;;;;;;;2.07;1.03;;;;;;;;;;6278956;28;20067;-84
2022/05/26 10:10:42;;;;;;;7.60;1.23;;;;;;;;;;6268003;28;20032;-84
2022/05/26 10:13:49;;;;;;;2.95;1.40;;;;;;;;;;6279774;28;20029;-83
2022/05/26 10:16:49;;;;;;;2.20;0.98;;;;;;;;;;6268936;28;20022;-83
2022/05/26 10:19:49;;;;;;;5.13;1.00;;;;;;;;;;6278012;28;20045;-82
2022/05/26 10:23:01;;;;;;;1.20;0.93;;;;;;;;;;6273361;28;20032;-83
2022/05/26 10:26:12;;;;;;;4.22;1.08;;;;;;;;;;6277595;28;20029;-83
2022/05/26 10:29:26;;;;;;;1.67;1.00;;;;;;;;;;6259603;28;20033;-83
2022/05/26 10:32:33;;;;;;;2.15;0.80;;;;;;;;;;6270630;28;20048;-84
2022/05/26 10:35:38;;;;;;;2.08;1.23;;;;;;;;;;6287531;28;20035;-83
2022/05/26 10:38:57;;;;;;;2.72;1.20;;;;;;;;;;6267301;28;20044;-83
2022/05/26 10:42:01;;;;;;;6.55;1.90;;;;;;;;;;6264630;28;20073;-83
2022/05/26 10:45:06;;;;;;;5.68;1.30;;;;;;;;;;6276134;28;20013;-84
2022/05/26 10:48:30;;;;;;;5.72;1.13;;;;;;;;;;6269732;28;20068;-85
2022/05/26 10:51:50;;;;;;;2.45;1.10;;;;;;;;;;6275468;28;20033;-84
2022/05/26 10:54:50;;;;;;;12.10;3.15;;;;;;;;;;6245139;28;20037;-84
2022/05/26 10:57:58;;;;;;;5.37;1.90;;;;;;;;;;6274465;28;20012;-84
2022/05/26 11:01:01;;;;;;;7.68;1.75;;;;;;;;;;6274455;28;20022;-84
2022/05/26 11:04:21;;;;;;;4.47;1.27;;;;;;;;;;6275340;28;20525;-84
2022/05/26 11:07:38;;;;;;;3.40;1.23;;;;;;;;;;6269658;28;20017;-84
2022/05/26 11:10:42;;;;;;;2.97;0.90;;;;;;;;;;6266723;28;20024;-84
2022/05/26 11:13:42;;;;;;;3.85;1.63;;;;;;;;;;6259874;28;20013;-84
2022/05/26 11:20:13;;;;;;;5.65;1.48;;;;;;;;;;6264701;28;20045;-85
2022/05/26 11:23:16;;;;;;;3.17;1.08;;;;;;;;;;6270374;28;20025;-85
2022/05/26 11:26:21;;;;;;;2.92;1.50;;;;;;;;;;6266343;28;20043;-84
2022/05/26 11:29:40;;;;;;;3.17;1.30;;;;;;;;;;6260671;28;20070;-84
2022/05/26 11:36:11;;;;;;;5.22;1.40;;;;;;;;;;6267060;28;20029;-84
2022/05/26 11:39:28;;;;;;;4.20;1.25;;;;;;;;;;6266930;28;20017;-84
2022/05/26 11:42:35;;;;;;;2.65;1.00;;;;;;;;;;6272865;28;20481;-84
2022/05/26 11:45:46;;;;;;;4.75;1.17;;;;;;;;;;6263403;28;20017;-84
2022/05/26 11:48:46;;;;;;;5.18;1.80;;;;;;;;;;6272711;28;20071;-84
2022/05/26 11:51:47;;;;;;;2.80;1.40;;;;;;;;;;6266216;28;20037;-84
2022/05/26 11:54:53;;;;;;;3.30;1.33;;;;;;;;;;6269808;28;20354;-84
2022/05/26 11:57:54;;;;;;;1.20;1.10;;;;;;;;;;6275763;28;20025;-84
2022/05/26 12:01:13;;;;;;;1.58;1.45;;;;;;;;;;6275215;28;20052;-84
2022/05/26 12:04:25;;;;;;;1.48;0.98;;;;;;;;;;6269678;28;20056;-84
2022/05/26 12:07:35;;;;;;;2.08;1.13;;;;;;;;;;6274424;28;20021;-84
2022/05/26 12:10:39;;;;;;;1.20;1.10;;;;;;;;;;6262352;28;20108;-84
2022/05/26 12:13:40;;;;;;;2.03;0.88;;;;;;;;;;6274399;28;20017;-83
2022/05/26 12:16:40;;;;;;;3.47;1.50;;;;;;;;;;6277189;28;20028;-84
2022/05/26 12:19:41;;;;;;;9.27;1.60;;;;;;;;;;6278452;28;20048;-84
2022/05/26 12:22:51;;;;;;;5.03;1.67;;;;;;;;;;6270446;28;20025;-84
2022/05/26 12:26:28;;;;;;;1.65;1.30;;;;;;;;;;6266213;28;20120;-84
2022/05/26 12:29:46;;;;;;;2.30;1.17;;;;;;;;;;6230314;28;20558;-83
2022/05/26 12:32:52;;;;;;;2.65;1.50;;;;;;;;;;6261457;28;20052;-84
2022/05/26 12:36:16;;;;;;;4.75;1.25;;;;;;;;;;6272958;28;20028;-83
2022/05/26 12:39:19;;;;;;;2.53;1.30;;;;;;;;;;6278793;28;20015;-83
2022/05/26 12:42:49;;;;;;;5.07;1.55;;;;;;;;;;6276751;28;20021;-84
2022/05/26 12:45:49;;;;;;;3.97;1.25;;;;;;;;;;6253174;28;20025;-83
2022/05/26 12:48:56;;;;;;;13.60;1.23;;;;;;;;;;6273581;28;20072;-83
2022/05/26 12:52:06;;;;;;;1.95;1.30;;;;;;;;;;6273085;28;20545;-83
2022/05/26 12:55:13;;;;;;;1.42;0.80;;;;;;;;;;6272618;28;20021;-83
2022/05/26 12:58:18;;;;;;;4.00;1.75;;;;;;;;;;6276616;28;20013;-83
2022/05/26 13:01:19;;;;;;;1.48;1.20;;;;;;;;;;6275219;28;20025;-83
2022/05/26 13:04:32;;;;;;;3.22;1.15;;;;;;;;;;6273006;28;20377;-83
2022/05/26 13:07:34;;;;;;;5.45;1.50;;;;;;;;;;6274883;28;20025;-83
2022/05/26 13:10:35;;;;;;;;;;;;;;;;;;6271679;28;20017;-82
2022/05/26 13:13:38;;;;;;;2.30;0.80;;;;;;;;;;6272764;28;19919;-82
2022/05/26 13:16:39;;;;;;;2.97;0.88;;;;;;;;;;6264366;28;20044;-82
2022/05/26 13:19:47;;;;;;;2.97;0.93;;;;;;;;;;6262554;28;20037;-82
2022/05/26 13:22:48;;;;;;;1.88;1.20;;;;;;;;;;6261676;28;20052;-82
2022/05/26 13:25:48;;;;;;;2.03;1.30;;;;;;;;;;6263886;28;20061;-82
2022/05/26 13:28:50;;;;;;;6.60;1.60;;;;;;;;;;6272369;28;20017;-81
2022/05/26 13:35:18;;;;;;;6.10;1.20;;;;;;;;;;6267386;28;20096;-82
2022/05/26 13:38:22;;;;;;;2.22;1.08;;;;;;;;;;6270559;28;20020;-82
2022/05/26 13:41:24;;;;;;;3.28;1.63;;;;;;;;;;6263565;28;20036;-82
2022/05/26 13:44:50;;;;;;;5.90;1.45;;;;;;;;;;6270750;28;20067;-81
2022/05/26 13:47:51;;;;;;;7.43;1.45;;;;;;;;;;6273189;28;20025;-81
2022/05/26 13:50:53;;;;;;;1.55;1.02;;;;;;;;;;6270986;28;20029;-81
2022/05/26 13:53:53;;;;;;;;;;;;;;;;;;6274359;28;20476;-81
2022/05/26 13:56:54;;;;;;;2.15;0.80;;;;;;;;;;6273565;28;19935;-81
2022/05/26 13:59:56;;;;;;;5.20;1.17;;;;;;;;;;6278294;28;20068;-81
2022/05/26 14:02:58;;;;;;;2.50;1.40;;;;;;;;;;6275423;28;20028;-81
2022/05/26 14:06:00;;;;;;;2.03;1.30;;;;;;;;;;6276341;28;20024;-81
2022/05/26 14:09:03;;;;;;;2.28;0.88;;;;;;;;;;6269241;28;20044;-81
2022/05/26 14:12:05;;;;;;;3.90;1.45;;;;;;;;;;6265662;28;20024;-81
2022/05/26 14:15:05;;;;;;;2.33;1.45;;;;;;;;;;6268750;28;20022;-80
2022/05/26 14:18:07;;;;;;;3.40;1.63;;;;;;;;;;6270717;28;20372;-81
2022/05/26 14:21:13;;;;;;;3.97;1.13;;;;;;;;;;6265692;28;20076;-81
2022/05/26 14:24:28;;;;;;;7.15;3.42;;;;;;;;;;6269460;28;20018;-81
2022/05/26 14:27:29;;;;;;;1.15;0.75;;;;;;;;;;6274967;28;20444;-80
2022/05/26 14:30:43;;;;;;;9.43;5.50;;;;;;;;;;6267108;28;20014;-80
2022/05/26 14:33:55;;;;;;;2.28;0.68;;;;;;;;;;6267686;28;20028;-80
2022/05/26 14:36:57;;;;;;;1.55;0.93;;;;;;;;;;6277708;28;20017;-80
2022/05/26 14:39:58;;;;;;;3.08;1.13;;;;;;;;;;6277431;28;20021;-79
2022/05/26 14:42:58;;;;;;;1.10;1.07;;;;;;;;;;6278967;28;20461;-80
2022/05/26 14:45:58;;;;;;;2.67;0.87;;;;;;;;;;6277137;28;20013;-80
2022/05/26 14:48:59;;;;;;;1.63;1.20;;;;;;;;;;6276745;28;20021;-80
2022/05/26 14:51:59;;;;;;;2.90;0.77;;;;;;;;;;6276957;28;20023;-80
2022/05/26 14:58:18;;;;;;;1.95;1.20;;;;;;;;;;6278899;28;20028;-80
2022/05/26 15:01:19;;;;;;;4.10;1.70;;;;;;;;;;6276033;28;20031;-80
2022/05/26 15:04:19;;;;;;;4.70;3.60;;;;;;;;;;6274843;28;20025;-80
2022/05/26 15:07:19;;;;;;;5.03;1.90;;;;;;;;;;6274137;28;20036;-80
2022/05/26 15:10:19;;;;;;;6.50;1.10;;;;;;;;;;6279085;28;20024;-79
2022/05/26 15:13:20;;;;;;;8.83;1.80;;;;;;;;;;6278358;28;20060;-80
2022/05/26 15:16:23;;;;;;;0.80;0.80;;;;;;;;;;6277488;28;20024;-80
2022/05/26 15:19:26;;;;;;;2.13;0.52;;;;;;;;;;6274824;28;20041;-80
2022/05/26 15:22:28;;;;;;;3.05;0.82;;;;;;;;;;6278027;28;20020;-79
2022/05/26 15:25:29;;;;;;;4.20;1.15;;;;;;;;;;6274856;28;20472;-79
2022/05/26 15:28:29;;;;;;;3.90;1.20;;;;;;;;;;6265457;28;20017;-80
2022/05/26 15:31:29;;;;;;;1.23;0.77;;;;;;;;;;6265091;28;20013;-80
2022/05/26 15:34:30;;;;;;;1.00;0.63;;;;;;;;;;6266185;28;20020;-80
2022/05/26 15:37:30;;;;;;;5.03;1.60;;;;;;;;;;6274658;28;20051;-79
2022/05/26 15:40:30;;;;;;;3.13;1.27;;;;;;;;;;6274952;28;20036;-80
2022/05/26 15:43:31;;;;;;;2.33;1.53;;;;;;;;;;6274687;28;20368;-79
2022/05/26 15:46:32;;;;;;;1.98;0.80;;;;;;;;;;6274948;28;20083;-79
2022/05/26 15:49:32;;;;;;;2.73;0.90;;;;;;;;;;6274671;28;20037;-79
2022/05/26 15:52:32;;;;;;;8.37;6.40;;;;;;;;;;6274401;28;20013;-79
2022/05/26 15:55:33;;;;;;;3.67;3.00;;;;;;;;;;6274548;28;20337;-81
2022/05/26 15:58:33;;;;;;;5.27;2.23;;;;;;;;;;6267396;28;20013;-78
2022/05/26 16:01:34;;;;;;;4.50;0.73;;;;;;;;;;6261312;28;20016;-79
2022/05/26 16:04:34;;;;;;;3.07;2.20;;;;;;;;;;6262437;28;20024;-79
2022/05/26 16:07:34;;;;;;;3.67;1.13;;;;;;;;;;6270686;28;20022;-80
2022/05/26 16:10:34;;;;;;;2.67;1.80;;;;;;;;;;6275205;28;20005;-80
2022/05/26 16:13:35;;;;;;;3.07;1.07;;;;;;;;;;6267136;28;20013;-79
2022/05/26 16:16:37;;;;;;;4.60;1.30;;;;;;;;;;6272023;28;20013;-79
2022/05/26 16:19:37;;;;;;;6.30;1.27;;;;;;;;;;6274487;28;20029;-80
2022/05/26 16:22:38;;;;;;;4.90;1.00;;;;;;;;;;6281308;28;20023;-80
2022/05/26 16:25:38;;;;;;;5.37;1.07;;;;;;;;;;6279704;28;20037;-80
2022/05/26 16:28:39;;;;;;;3.57;0.80;;;;;;;;;;6270536;28;20043;-80
2022/05/26 16:31:39;;;;;;;2.13;0.90;;;;;;;;;;6264764;28;20040;-80
2022/05/26 16:34:40;;;;;;;3.23;0.97;;;;;;;;;;6277033;28;20436;-80
2022/05/26 16:37:41;;;;;;;;;;;;;;;;;;6272394;28;20017;-78
2022/05/26 16:40:41;;;;;;;3.03;1.92;;;;;;;;;;6263713;28;19916;-79
2022/05/26 16:43:42;;;;;;;2.67;2.00;;;;;;;;;;6270111;28;20044;-79
2022/05/26 16:46:42;;;;;;;3.90;1.70;;;;;;;;;;6274180;28;20036;-79
2022/05/26 16:49:47;;;;;;;4.00;1.67;;;;;;;;;;6274130;28;20112;-79
2022/05/26 16:52:48;;;;;;;4.43;1.70;;;;;;;;;;6272805;28;20032;-79
2022/05/26 16:55:48;;;;;;;3.97;1.10;;;;;;;;;;6268503;28;20017;-79
2022/05/26 16:58:49;;;;;;;4.27;1.40;;;;;;;;;;6282862;28;20021;-79
2022/05/26 17:01:52;;;;;;;1.33;1.00;;;;;;;;;;6279700;28;20325;-79
2022/05/26 17:04:52;;;;;;;3.10;1.33;;;;;;;;;;6283625;28;20025;-79
2022/05/26 17:07:52;;;;;;;2.80;1.80;;;;;;;;;;6277021;28;20052;-79
2022/05/26 17:10:53;;;;;;;2.47;1.00;;;;;;;;;;6277892;28;20036;-79
2022/05/26 17:20:56;;;;;;;5.57;2.25;;;;;;;;;;6235960;28;20693;-79
2022/05/26 17:23:58;;;;;;;3.53;2.22;;;;;;;;;;6263620;28;20023;-79
2022/05/26 17:26:58;;;;;;;;;;;;;;;;;;6270413;28;20016;-79
2022/05/26 17:29:58;;;;;;;3.27;1.50;;;;;;;;;;6273083;28;19974;-80
2022/05/26 17:32:59;;;;;;;2.87;1.37;;;;;;;;;;6279422;28;20025;-79
2022/05/26 17:35:59;;;;;;;3.13;1.27;;;;;;;;;;6275117;28;20120;-78
2022/05/26 17:39:01;;;;;;;3.80;1.50;;;;;;;;;;6276573;28;20482;-79
2022/05/26 17:42:03;;;;;;;3.80;1.40;;;;;;;;;;6274576;28;20021;-80
2022/05/26 17:45:03;;;;;;;5.43;2.72;;;;;;;;;;6280170;28;20032;-78
2022/05/26 17:48:04;;;;;;;10.33;3.17;;;;;;;;;;6271886;28;20033;-78
2022/05/26 17:51:04;;;;;;;7.43;3.60;;;;;;;;;;6262203;28;20025;-78
2022/05/26 17:54:08;;;;;;;3.73;1.87;;;;;;;;;;6267790;28;20021;-78
2022/05/26 17:57:09;;;;;;;2.08;1.00;;;;;;;;;;6288438;28;20103;-78
2022/05/26 18:03:34;;;;;;;6.88;1.80;;;;;;;;;;6265616;28;20036;-78
2022/05/26 18:06:35;;;;;;;4.20;2.28;;;;;;;;;;6255869;28;20022;-78
2022/05/26 18:09:35;;;;;;;1.43;1.33;;;;;;;;;;6260886;28;20071;-78
2022/05/26 18:12:35;;;;;;;3.57;2.77;;;;;;;;;;6270817;28;20028;-79
2022/05/26 18:15:36;;;;;;;4.37;2.80;;;;;;;;;;6275215;28;20839;-80
2022/05/26 18:18:42;;;;;;;8.40;2.90;;;;;;;;;;6262605;28;20496;-79
2022/05/26 18:21:43;;;;;;;4.15;2.88;;;;;;;;;;6262549;28;20029;-79
2022/05/26 18:24:43;;;;;;;4.77;3.03;;;;;;;;;;6264103;28;20075;-79
2022/05/26 18:27:44;;;;;;;7.20;2.77;;;;;;;;;;6265855;28;20770;-79
2022/05/26 18:30:44;;;;;;;3.90;2.10;;;;;;;;;;6265352;28;20010;-79
2022/05/26 18:33:44;;;;;;;3.60;1.40;;;;;;;;;;6263614;28;20021;-79
2022/05/26 18:36:45;;;;;;;2.83;1.83;;;;;;;;;;6273543;28;20108;-79
2022/05/26 18:39:45;;;;;;;4.73;1.93;;;;;;;;;;6274196;28;20017;-79
2022/05/26 18:42:46;;;;;;;5.23;2.90;;;;;;;;;;6264392;28;20150;-79
2022/05/26 18:45:47;;;;;;;6.30;1.90;;;;;;;;;;6263478;28;20017;-80
2022/05/26 18:48:48;;;;;;;3.50;2.00;;;;;;;;;;6269041;28;20020;-79
2022/05/26 18:51:48;;;;;;;3.50;1.75;;;;;;;;;;6264015;28;20366;-79
2022/05/26 18:54:49;;;;;;;2.57;1.50;;;;;;;;;;6266795;28;20027;-79
2022/05/26 18:57:49;;;;;;;3.63;2.08;;;;;;;;;;6269441;28;20098;-79
2022/05/26 19:00:54;;;;;;;3.87;1.97;;;;;;;;;;6271739;28;20013;-79
2022/05/26 19:03:56;;;;;;;6.88;2.10;;;;;;;;;;6271162;28;20021;-79
2022/05/26 19:06:56;;;;;;;5.78;2.30;;;;;;;;;;6270646;28;20090;-78
2022/05/26 19:09:57;;;;;;;5.63;2.50;;;;;;;;;;6267903;28;20021;-79